Aérodrome :
LOGIN :

S'inscrire | Disclaimer

   EN    FR    IT 

 










Légende :    VFR   VFR Marginal   IFR   IFR Intensif   IFR Très Intensif
Visi : 
Plafond : 
>= 8 km
>= 3000ft
5 à 8 km
1000 à 3000 ft
1500m à 5 km
500 à 1000 ft
800 à 1500m
200 à 500 ft
< 800m
< 200 ft
Symboles :   Orages  Brouillard  Fortes neiges  Fortes précipitations  Vent > 20 kt
SIGMETs :   Divers  Orages  Givrage  Turbulence  Onde Orograph.  Cendres Volcan.






- Altitude de l'aérodrome : 297 ft
- Code IATA : UIP


LFRQ - Quimper Pluguffan

DERNIER METAR :
  • 190430Z AUTO 07003KT 5000 BR SCT048 04/04 Q1016

METARs EXPIRÉS :
  • 190400Z AUTO 09003KT 7000 BKN047 05/04 Q1016
  • 190330Z AUTO 13005KT 090V180 9999 FEW006 BKN017 OVC043 05/05 Q1016
  • 190300Z AUTO VRB02KT 9999 BKN019 BKN033 OVC043 04/04 Q1017
  • 190230Z AUTO VRB03KT 9999 SCT021 BKN032 BKN044 04/04 Q1017
  • 190200Z AUTO 09003KT 050V130 9999 SCT021 BKN030 OVC047 04/04 Q1017

TAF TAF LFRQ
Valide du 18 à 18h jusqu'au 19 à 18h UTC


181700Z 1818/1918 03005KT CAVOK
PROB30
TEMPO 1820/1824 MIFG
BECMG 1908/1910 16010KT
TEMPO 1912/1918 SHRA SCT010TCU



MET'MAP, la Météo Aéronautique d'un coup d'oeil ! - Copyright ORBIFLY Décembre 2007 - Disclaimer

ORBIFLY MET'MAP TEAM :

Programmation & Développement : Alexandra Zaïnal
Conception & Développement : Baudouin d'Aumeries
Co-Programmation & Développement : Marc-Olivier Méhu
Soutien technique & logistique : Manuel Goepfert

Contact : metmap@orbifly.com




SOURCES & CREDITS :

   NOAA